createdAt,value
2022-11-20T00:01:20.579Z,98079.81
2022-11-20T00:03:47.927Z,98075.81
2022-11-20T00:06:16.951Z,98079.69
2022-11-20T00:08:43.903Z,98079.81
2022-11-20T00:11:16.170Z,98079.81
2022-11-20T00:13:44.197Z,98075.19
2022-11-20T00:16:12.299Z,98080.84
2022-11-20T00:18:38.697Z,98077.09
2022-11-20T00:21:06.890Z,98071.00
2022-11-20T00:23:33.405Z,98080.16
2022-11-20T00:26:05.002Z,98069.53
2022-11-20T00:28:31.646Z,98062.19
2022-11-20T00:31:06.614Z,98051.56
2022-11-20T00:33:33.357Z,98050.63
2022-11-20T00:36:02.155Z,98046.13
2022-11-20T00:38:29.005Z,98050.56
2022-11-20T00:40:57.462Z,98044.34
2022-11-20T00:43:24.076Z,98047.50
2022-11-20T00:45:50.679Z,98052.09
2022-11-20T00:48:17.359Z,98051.56
2022-11-20T00:50:43.851Z,98048.75
2022-11-20T00:53:10.298Z,98042.97
2022-11-20T00:55:36.953Z,98039.09
2022-11-20T00:58:04.635Z,98035.63
2022-11-20T01:00:31.333Z,98043.28
2022-11-20T01:02:57.715Z,98044.88
2022-11-20T01:05:24.160Z,98039.00
2022-11-20T01:07:50.614Z,98045.59
2022-11-20T01:10:17.170Z,98040.13
2022-11-20T01:12:43.675Z,98037.09
2022-11-20T01:15:10.329Z,98046.56
2022-11-20T01:17:36.918Z,98045.31
2022-11-20T01:20:03.592Z,98042.47
2022-11-20T01:22:30.035Z,98053.19
2022-11-20T01:24:56.503Z,98049.19
2022-11-20T01:27:23.020Z,98045.81
2022-11-20T01:29:49.437Z,98042.88
2022-11-20T01:32:16.005Z,98040.34
2022-11-20T01:34:42.599Z,98039.09
2022-11-20T01:37:08.975Z,98032.91
2022-11-20T01:39:35.533Z,98044.22
2022-11-20T01:42:20.372Z,98035.09
2022-11-20T01:44:54.671Z,98041.09
2022-11-20T01:47:33.202Z,98032.59
2022-11-20T01:50:05.368Z,98031.94
2022-11-20T01:52:37.788Z,98033.31
2022-11-20T01:55:14.096Z,98034.56
2022-11-20T01:57:41.765Z,98032.66
2022-11-20T02:00:12.348Z,98035.28
2022-11-20T02:02:41.508Z,98038.00
2022-11-20T02:05:36.873Z,98038.94
2022-11-20T02:08:05.284Z,98032.31
2022-11-20T02:10:32.950Z,98048.19
2022-11-20T02:13:18.852Z,98039.34
2022-11-20T02:15:45.910Z,98042.72
2022-11-20T02:18:14.750Z,98035.16
2022-11-20T02:20:44.827Z,98047.44
2022-11-20T02:23:38.939Z,98046.06
2022-11-20T02:26:09.967Z,98047.00
2022-11-20T02:28:36.722Z,98042.72
2022-11-20T02:31:04.224Z,98028.31
2022-11-20T02:33:30.730Z,98039.22
2022-11-20T02:35:57.108Z,98031.88
2022-11-20T02:38:24.282Z,98030.09
2022-11-20T02:40:55.338Z,98031.53
2022-11-20T02:43:22.200Z,98030.81
2022-11-20T02:45:48.903Z,98033.94
2022-11-20T02:48:15.328Z,98036.38
2022-11-20T02:50:41.913Z,98026.44
2022-11-20T02:53:08.852Z,98023.31
2022-11-20T02:55:35.676Z,98023.31
2022-11-20T02:58:02.169Z,98028.22
2022-11-20T03:00:28.607Z,98023.09
2022-11-20T03:02:55.033Z,98020.72
2022-11-20T03:05:21.558Z,98012.28
2022-11-20T03:07:47.978Z,98006.22
2022-11-20T03:10:14.563Z,98007.78
2022-11-20T03:12:41.041Z,98007.13
2022-11-20T03:15:07.912Z,98000.03
2022-11-20T03:17:34.380Z,98014.50
2022-11-20T03:20:00.919Z,98002.13
2022-11-20T03:22:30.211Z,98011.88
2022-11-20T03:24:56.819Z,98011.56
2022-11-20T03:27:23.236Z,98018.69
2022-11-20T03:29:49.638Z,98019.13
2022-11-20T03:32:16.156Z,98019.78
2022-11-20T03:34:42.502Z,98017.56
2022-11-20T03:37:09.031Z,98013.06
2022-11-20T03:39:35.473Z,98010.13
2022-11-20T03:42:01.996Z,98015.25
2022-11-20T03:44:28.439Z,98006.78
2022-11-20T03:46:54.781Z,98004.75
2022-11-20T03:49:21.485Z,97999.63
2022-11-20T03:51:48.637Z,97998.66
2022-11-20T03:54:15.155Z,97992.69
2022-11-20T03:56:41.642Z,97997.13
2022-11-20T03:59:10.786Z,97993.13
2022-11-20T04:01:43.197Z,97992.81
2022-11-20T04:04:13.246Z,97999.50
2022-11-20T04:06:39.648Z,97986.63
2022-11-20T04:09:06.976Z,97992.59
2022-11-20T04:11:37.186Z,97996.59
2022-11-20T04:14:05.816Z,97987.66
2022-11-20T04:16:37.524Z,97989.31
2022-11-20T04:19:11.571Z,97988.81
2022-11-20T04:21:38.303Z,97980.31
2022-11-20T04:24:05.360Z,97986.50
2022-11-20T04:26:32.022Z,97988.06
2022-11-20T04:28:59.794Z,97980.53
2022-11-20T04:31:29.120Z,97968.03
2022-11-20T04:33:56.141Z,97971.59
2022-11-20T04:36:27.712Z,97958.38
2022-11-20T04:38:57.411Z,97972.25
2022-11-20T04:41:26.532Z,97966.66
2022-11-20T04:44:04.297Z,97961.53
2022-11-20T04:46:40.589Z,97962.25
2022-11-20T04:49:08.000Z,97973.69
2022-11-20T04:51:34.739Z,97981.78
2022-11-20T04:54:01.355Z,97989.53
2022-11-20T04:56:27.938Z,97977.16
2022-11-20T04:58:54.369Z,97975.72
2022-11-20T05:01:23.967Z,97977.56
2022-11-20T05:03:50.897Z,97971.50
2022-11-20T05:06:19.512Z,97963.44
2022-11-20T05:08:45.973Z,97970.22
2022-11-20T05:11:15.470Z,97967.50
2022-11-20T05:13:42.205Z,97968.25
2022-11-20T05:16:18.620Z,97978.84
2022-11-20T05:18:45.391Z,97973.38
2022-11-20T05:21:13.241Z,97975.47
2022-11-20T05:23:40.588Z,97975.47
2022-11-20T05:26:08.946Z,97984.84
2022-11-20T05:28:35.545Z,97985.78
2022-11-20T05:31:27.248Z,97987.75
2022-11-20T05:33:55.329Z,97980.94
2022-11-20T05:36:21.781Z,97971.06
2022-11-20T05:38:50.923Z,97977.25
2022-11-20T05:41:20.115Z,97977.16
2022-11-20T05:43:48.249Z,97974.66
2022-11-20T05:46:16.727Z,97976.53
2022-11-20T05:48:46.218Z,97974.50
2022-11-20T05:51:16.975Z,97976.94
2022-11-20T05:53:48.285Z,97970.41
2022-11-20T05:56:18.871Z,97982.78
2022-11-20T05:58:46.240Z,97977.56
2022-11-20T06:01:18.460Z,97965.50
2022-11-20T06:03:48.227Z,97966.91
2022-11-20T06:06:16.068Z,97963.47
2022-11-20T06:08:42.778Z,97963.75
2022-11-20T06:11:11.288Z,97957.09
2022-11-20T06:13:41.833Z,97958.03
2022-11-20T06:16:09.940Z,97955.97
2022-11-20T06:18:36.724Z,97946.75
2022-11-20T06:21:13.287Z,97941.38
2022-11-20T06:23:40.293Z,97953.44
2022-11-20T06:26:11.973Z,97951.97
2022-11-20T06:28:38.965Z,97948.31
2022-11-20T06:31:06.752Z,97942.44
2022-11-20T06:33:33.695Z,97935.81
2022-11-20T06:36:05.650Z,97926.59
2022-11-20T06:38:35.548Z,97933.09
2022-11-20T06:41:02.101Z,97931.06
2022-11-20T06:43:29.831Z,97929.16
2022-11-20T06:45:58.473Z,97936.06
2022-11-20T06:48:26.600Z,97943.31
2022-11-20T06:50:53.133Z,97946.13
2022-11-20T06:53:19.809Z,97950.09
2022-11-20T06:55:47.867Z,97948.09
2022-11-20T06:58:15.858Z,97946.19
2022-11-20T07:00:42.627Z,97947.16
2022-11-20T07:03:11.367Z,97945.88
2022-11-20T07:05:39.268Z,97947.53
2022-11-20T07:08:06.056Z,97942.91
2022-11-20T07:10:33.492Z,97949.34
2022-11-20T07:13:00.589Z,97947.25
2022-11-20T07:15:27.516Z,97955.09
2022-11-20T07:17:53.977Z,97966.81
2022-11-20T07:20:20.592Z,97965.25
2022-11-20T07:22:47.133Z,97968.88
2022-11-20T07:25:13.630Z,97955.09
2022-11-20T07:27:40.089Z,97957.72
2022-11-20T07:30:07.808Z,97970.34
2022-11-20T07:32:34.294Z,97966.00
2022-11-20T07:35:00.944Z,97969.72
2022-11-20T07:37:27.301Z,97979.47
2022-11-20T07:39:53.707Z,97965.38
2022-11-20T07:42:20.078Z,97969.66
2022-11-20T07:44:46.596Z,97975.34
2022-11-20T07:47:12.991Z,97970.13
2022-11-20T07:49:39.425Z,97971.66
2022-11-20T07:52:05.804Z,97981.78
2022-11-20T07:54:32.733Z,97985.94
2022-11-20T07:56:59.157Z,97995.63
2022-11-20T07:59:25.670Z,97987.31
2022-11-20T08:01:52.142Z,97994.22
2022-11-20T08:04:18.804Z,97994.22
2022-11-20T08:06:45.240Z,97992.06
2022-11-20T08:09:11.815Z,97991.59
2022-11-20T08:11:57.241Z,97996.03
2022-11-20T08:14:23.659Z,97998.13
2022-11-20T08:16:50.819Z,97989.09
2022-11-20T08:19:19.055Z,97987.25
2022-11-20T08:21:46.030Z,97981.69
2022-11-20T08:24:13.008Z,97983.75
2022-11-20T08:26:40.521Z,97985.03
2022-11-20T08:29:07.305Z,97994.63
2022-11-20T08:31:33.918Z,97994.53
2022-11-20T08:34:04.968Z,97997.44
2022-11-20T08:36:35.912Z,97994.09
2022-11-20T08:39:03.396Z,97996.88
2022-11-20T08:41:32.696Z,98004.09
2022-11-20T08:44:04.263Z,98008.38
2022-11-20T08:46:40.267Z,98008.84
2022-11-20T08:49:08.864Z,98004.53
2022-11-20T08:51:36.053Z,98015.34
2022-11-20T08:54:03.219Z,98004.66
2022-11-20T08:56:29.770Z,98002.16
2022-11-20T09:01:42.919Z,98002.19
2022-11-20T09:04:09.365Z,97997.56
2022-11-20T09:06:35.820Z,98007.00
2022-11-20T09:09:06.596Z,98010.75
2022-11-20T09:11:35.075Z,98009.16
2022-11-20T09:14:03.548Z,98009.38
2022-11-20T09:16:29.965Z,98017.00
2022-11-20T09:19:20.269Z,98006.06
2022-11-20T09:21:42.940Z,98007.72
2022-11-20T09:24:09.423Z,98007.47
2022-11-20T09:26:35.887Z,98001.94
2022-11-20T09:29:02.523Z,98003.16
2022-11-20T09:31:28.920Z,98000.06
2022-11-20T09:33:55.554Z,98011.81
2022-11-20T09:36:22.023Z,98011.81
2022-11-20T09:38:49.294Z,98015.75
2022-11-20T09:41:40.575Z,98014.16
2022-11-20T09:44:28.794Z,98016.06
2022-11-20T09:47:03.901Z,98020.56
2022-11-20T09:49:45.528Z,98018.41
2022-11-20T09:52:30.941Z,98011.31
2022-11-20T09:54:57.863Z,98008.69
2022-11-20T09:57:35.059Z,98003.88
2022-11-20T10:00:03.471Z,98004.19
2022-11-20T10:02:37.138Z,98006.00
2022-11-20T10:05:25.963Z,98010.84
2022-11-20T10:08:15.011Z,98011.31
2022-11-20T10:10:50.760Z,98011.34
2022-11-20T10:13:33.864Z,98009.09
2022-11-20T10:19:10.628Z,98012.66
2022-11-20T10:21:45.895Z,98007.66
2022-11-20T10:24:15.639Z,98003.34
2022-11-20T10:26:50.996Z,98002.59
2022-11-20T10:29:20.266Z,98006.03
2022-11-20T10:31:52.480Z,97994.00
2022-11-20T10:34:32.840Z,97996.75
2022-11-20T10:37:04.695Z,97994.09
2022-11-20T10:39:40.337Z,97984.19
2022-11-20T10:42:14.299Z,97983.22
2022-11-20T10:45:05.850Z,97987.63
2022-11-20T10:47:33.410Z,97988.59
2022-11-20T10:50:05.389Z,97986.78
2022-11-20T10:53:06.073Z,97991.03
2022-11-20T10:55:59.989Z,97979.66
2022-11-20T10:58:44.968Z,97969.59
2022-11-20T11:01:24.193Z,97968.75
2022-11-20T11:03:55.866Z,97965.84
2022-11-20T11:06:43.796Z,97976.47
2022-11-20T11:09:17.271Z,97965.53
2022-11-20T11:11:43.758Z,97967.53
2022-11-20T11:14:13.337Z,97973.25
2022-11-20T11:16:57.793Z,97965.66
2022-11-20T11:19:25.569Z,97968.06
2022-11-20T11:21:56.192Z,97961.91
2022-11-20T11:24:42.291Z,97963.19
2022-11-20T11:27:17.366Z,97959.03
2022-11-20T11:29:45.284Z,97951.44
2022-11-20T11:32:22.558Z,97950.50
2022-11-20T11:35:07.411Z,97946.16
2022-11-20T11:37:36.786Z,97947.56
2022-11-20T11:42:58.725Z,97943.50
2022-11-20T11:45:25.766Z,97935.44
2022-11-20T11:47:54.886Z,97935.44
2022-11-20T11:50:23.812Z,97935.28
2022-11-20T11:53:16.720Z,97926.53
2022-11-20T11:56:08.584Z,97937.13
2022-11-20T11:58:56.100Z,97913.53
2022-11-20T12:01:32.830Z,97914.84
2022-11-20T12:04:28.083Z,97907.19
2022-11-20T12:07:44.903Z,97906.63
2022-11-20T12:10:04.051Z,97909.38
2022-11-20T12:12:42.038Z,97911.66
2022-11-20T12:15:13.868Z,97911.13
2022-11-20T12:17:40.368Z,97906.53
2022-11-20T12:20:15.446Z,97905.41
2022-11-20T12:22:56.265Z,97896.84
2022-11-20T12:25:30.910Z,97885.44
2022-11-20T12:28:13.834Z,97897.75
2022-11-20T12:31:10.715Z,97902.22
2022-11-20T12:33:53.875Z,97908.16
2022-11-20T12:36:37.551Z,97910.16
2022-11-20T12:39:18.354Z,97904.88
2022-11-20T12:42:15.826Z,97902.03
2022-11-20T12:45:23.850Z,97896.75
2022-11-20T12:47:53.174Z,97890.63
2022-11-20T12:51:14.604Z,97894.63
2022-11-20T12:54:23.261Z,97880.88
2022-11-20T12:57:08.648Z,97877.66
2022-11-20T12:59:53.396Z,97881.81
2022-11-20T13:02:36.728Z,97884.94
2022-11-20T13:05:18.876Z,97874.81
2022-11-20T13:07:46.823Z,97873.00
2022-11-20T13:10:27.761Z,97875.63
2022-11-20T13:13:02.236Z,97867.56
2022-11-20T13:15:49.318Z,97860.72
2022-11-20T13:18:16.636Z,97868.78
2022-11-20T13:20:47.740Z,97864.66
2022-11-20T13:23:28.335Z,97867.88
2022-11-20T13:26:17.548Z,97862.00
2022-11-20T13:28:44.147Z,97859.59
2022-11-20T13:31:36.108Z,97852.59
2022-11-20T13:34:07.020Z,97849.44
2022-11-20T13:36:35.895Z,97858.78
2022-11-20T13:39:02.862Z,97851.81
2022-11-20T13:41:34.989Z,97847.91
2022-11-20T13:44:13.715Z,97843.66
2022-11-20T13:46:46.232Z,97843.38
2022-11-20T13:49:35.179Z,97840.41
2022-11-20T13:52:31.320Z,97836.78
2022-11-20T13:55:32.113Z,97820.44
2022-11-20T13:58:05.300Z,97820.69
2022-11-20T14:00:31.858Z,97821.53
2022-11-20T14:03:07.201Z,97818.47
2022-11-20T14:06:03.794Z,97822.81
2022-11-20T14:08:49.265Z,97817.69
2022-11-20T14:11:25.307Z,97809.31
2022-11-20T14:14:05.371Z,97810.97
2022-11-20T14:16:37.008Z,97798.00
2022-11-20T14:19:21.567Z,97810.16
2022-11-20T14:22:09.379Z,97806.50
2022-11-20T14:24:35.839Z,97808.88
2022-11-20T14:27:02.878Z,97797.88
2022-11-20T14:29:39.624Z,97797.03
2022-11-20T14:32:06.307Z,97796.69
2022-11-20T14:34:38.331Z,97788.16
2022-11-20T14:37:07.276Z,97786.66
2022-11-20T14:39:36.360Z,97780.25
2022-11-20T14:42:11.869Z,97785.38
2022-11-20T14:44:38.997Z,97791.84
2022-11-20T14:47:06.053Z,97790.41
2022-11-20T14:49:33.124Z,97776.78
2022-11-20T14:52:11.504Z,97764.03
2022-11-20T14:54:50.514Z,97752.84
2022-11-20T14:57:29.252Z,97754.41
2022-11-20T15:00:06.721Z,97751.25
2022-11-20T15:02:33.441Z,97752.63
2022-11-20T15:05:04.149Z,97760.28
2022-11-20T15:07:36.481Z,97756.66
2022-11-20T15:10:12.248Z,97743.78
2022-11-20T15:12:46.911Z,97745.47
2022-11-20T15:15:18.479Z,97742.84
2022-11-20T15:17:44.944Z,97748.31
2022-11-20T15:20:16.672Z,97745.88
2022-11-20T15:22:43.339Z,97750.31
2022-11-20T15:25:17.667Z,97735.72
2022-11-20T15:27:45.608Z,97741.47
2022-11-20T15:30:17.910Z,97738.00
2022-11-20T15:32:45.652Z,97732.22
2022-11-20T15:35:12.232Z,97728.59
2022-11-20T15:37:39.212Z,97729.44
2022-11-20T15:40:07.050Z,97717.81
2022-11-20T15:42:34.133Z,97712.22
2022-11-20T15:45:01.120Z,97712.81
2022-11-20T15:47:33.697Z,97704.63
2022-11-20T15:50:00.333Z,97703.44
2022-11-20T15:52:30.448Z,97703.63
2022-11-20T15:54:59.715Z,97699.00
2022-11-20T15:57:26.309Z,97708.28
2022-11-20T15:59:52.895Z,97697.47
2022-11-20T16:02:19.707Z,97697.72
2022-11-20T16:04:46.202Z,97693.75
2022-11-20T16:07:12.813Z,97687.81
2022-11-20T16:09:39.404Z,97693.91
2022-11-20T16:12:06.070Z,97683.19
2022-11-20T16:14:51.131Z,97684.88
2022-11-20T16:17:37.558Z,97677.25
2022-11-20T16:20:04.288Z,97678.22
2022-11-20T16:22:30.782Z,97667.84
2022-11-20T16:24:57.170Z,97667.25
2022-11-20T16:27:23.690Z,97661.53
2022-11-20T16:29:50.161Z,97654.38
2022-11-20T16:32:16.645Z,97659.56
2022-11-20T16:34:43.098Z,97656.72
2022-11-20T16:37:09.579Z,97659.66
2022-11-20T16:39:36.039Z,97647.81
2022-11-20T16:42:05.847Z,97655.66
2022-11-20T16:44:32.394Z,97654.38
2022-11-20T16:46:59.016Z,97650.81
2022-11-20T16:49:26.069Z,97646.66
2022-11-20T16:51:52.524Z,97646.13
2022-11-20T16:54:21.145Z,97642.81
2022-11-20T16:56:48.260Z,97657.22
2022-11-20T16:59:14.669Z,97655.69
2022-11-20T17:01:43.161Z,97655.06
2022-11-20T17:04:10.157Z,97661.97
2022-11-20T17:06:44.107Z,97657.13
2022-11-20T17:09:11.243Z,97658.00
2022-11-20T17:11:37.801Z,97646.53
2022-11-20T17:14:07.254Z,97647.50
2022-11-20T17:16:35.533Z,97639.91
2022-11-20T17:19:03.925Z,97625.59
2022-11-20T17:21:31.989Z,97625.00
2022-11-20T17:24:03.453Z,97612.09
2022-11-20T17:26:30.223Z,97616.47
2022-11-20T17:29:02.685Z,97608.69
2022-11-20T17:31:30.572Z,97597.44
2022-11-20T17:33:59.593Z,97603.97
2022-11-20T17:36:26.837Z,97600.34
2022-11-20T17:38:53.275Z,97599.94
2022-11-20T17:41:22.353Z,97594.75
2022-11-20T17:43:49.744Z,97601.59
2022-11-20T17:46:21.310Z,97592.69
2022-11-20T17:48:49.490Z,97588.25
2022-11-20T17:51:19.174Z,97580.03
2022-11-20T17:53:51.665Z,97585.06
2022-11-20T17:56:37.653Z,97569.88
2022-11-20T17:59:06.523Z,97566.56
2022-11-20T18:01:33.041Z,97564.78
2022-11-20T18:03:59.746Z,97566.97
2022-11-20T18:06:27.770Z,97557.66
2022-11-20T18:08:54.556Z,97556.69
2022-11-20T18:11:24.145Z,97550.72
2022-11-20T18:14:15.873Z,97543.75
2022-11-20T18:16:52.807Z,97536.63
2022-11-20T18:19:29.854Z,97536.41
2022-11-20T18:22:01.313Z,97527.09
2022-11-20T18:24:28.087Z,97518.88
2022-11-20T18:26:54.739Z,97509.69
2022-11-20T18:29:21.789Z,97506.63
2022-11-20T18:31:48.990Z,97506.31
2022-11-20T18:34:15.994Z,97505.34
2022-11-20T18:36:42.769Z,97499.22
2022-11-20T18:39:11.976Z,97494.13
2022-11-20T18:41:57.573Z,97489.88
2022-11-20T18:44:45.012Z,97479.44
2022-11-20T18:47:16.251Z,97483.22
2022-11-20T18:49:46.301Z,97477.78
2022-11-20T18:52:13.313Z,97476.53
2022-11-20T18:54:39.869Z,97458.47
2022-11-20T18:57:06.353Z,97465.44
2022-11-20T18:59:32.985Z,97458.91
2022-11-20T19:01:59.552Z,97454.69
2022-11-20T19:04:26.597Z,97456.47
2022-11-20T19:06:56.141Z,97452.13
2022-11-20T19:09:24.230Z,97458.53
2022-11-20T19:11:51.490Z,97465.25
2022-11-20T19:14:18.480Z,97448.34
2022-11-20T19:16:44.981Z,97451.91
2022-11-20T19:19:11.959Z,97447.16
2022-11-20T19:21:38.507Z,97444.28
2022-11-20T19:24:05.617Z,97438.75
2022-11-20T19:26:35.447Z,97440.84
2022-11-20T19:29:02.909Z,97431.00
2022-11-20T19:31:29.412Z,97424.34
2022-11-20T19:33:56.867Z,97423.38
2022-11-20T19:36:27.071Z,97417.00
2022-11-20T19:38:54.514Z,97405.31
2022-11-20T19:41:28.837Z,97411.44
2022-11-20T19:44:06.819Z,97388.53
2022-11-20T19:46:34.872Z,97380.88
2022-11-20T19:49:02.121Z,97395.34
2022-11-20T19:51:31.804Z,97381.03
2022-11-20T19:53:59.745Z,97377.72
2022-11-20T19:56:28.101Z,97370.47
2022-11-20T19:58:55.077Z,97362.97
2022-11-20T20:01:27.594Z,97361.44
2022-11-20T20:03:55.237Z,97366.88
2022-11-20T20:06:24.586Z,97361.97
2022-11-20T20:09:03.503Z,97362.50
2022-11-20T20:11:32.749Z,97368.38
2022-11-20T20:14:06.888Z,97360.97
2022-11-20T20:16:34.425Z,97355.13
2022-11-20T20:19:02.755Z,97353.16
2022-11-20T20:21:30.710Z,97353.44
2022-11-20T20:23:58.410Z,97352.00
2022-11-20T20:26:27.250Z,97347.03
2022-11-20T20:28:53.859Z,97344.56
2022-11-20T20:31:24.484Z,97339.25
2022-11-20T20:33:51.123Z,97336.72
2022-11-20T20:36:21.020Z,97337.38
2022-11-20T20:38:47.667Z,97346.53
2022-11-20T20:41:14.919Z,97341.75
2022-11-20T20:43:59.987Z,97345.63
2022-11-20T20:46:26.627Z,97334.25
2022-11-20T20:48:54.945Z,97326.72
2022-11-20T20:51:22.794Z,97337.25
2022-11-20T20:53:49.909Z,97338.91
2022-11-20T20:56:17.704Z,97333.66
2022-11-20T20:58:44.475Z,97330.91
2022-11-20T21:01:14.409Z,97332.88
2022-11-20T21:03:41.712Z,97332.16
2022-11-20T21:06:10.041Z,97334.25
2022-11-20T21:08:40.462Z,97348.09
2022-11-20T21:11:16.380Z,97333.88
2022-11-20T21:13:44.138Z,97323.94
2022-11-20T21:16:11.973Z,97329.53
2022-11-20T21:18:38.556Z,97313.84
2022-11-20T21:21:25.462Z,97313.31
2022-11-20T21:23:53.450Z,97316.13
2022-11-20T21:26:20.880Z,97338.22
2022-11-20T21:28:47.473Z,97337.94
2022-11-20T21:31:22.302Z,97325.00
2022-11-20T21:33:50.963Z,97331.25
2022-11-20T21:36:20.254Z,97335.19
2022-11-20T21:38:47.785Z,97324.84
2022-11-20T21:41:15.337Z,97315.63
2022-11-20T21:43:42.985Z,97329.41
2022-11-20T21:46:12.309Z,97320.44
2022-11-20T21:48:40.906Z,97333.66
2022-11-20T21:51:10.436Z,97331.69
2022-11-20T21:53:37.383Z,97315.16
2022-11-20T21:56:04.821Z,97313.63
2022-11-20T21:58:31.712Z,97312.28
2022-11-20T22:00:58.247Z,97323.66
2022-11-20T22:03:24.863Z,97319.59
2022-11-20T22:05:56.569Z,97313.78
2022-11-20T22:08:26.731Z,97315.59
2022-11-20T22:10:58.161Z,97305.78
2022-11-20T22:13:44.679Z,97315.34
2022-11-20T22:16:11.680Z,97308.41
2022-11-20T22:18:51.934Z,97316.09
2022-11-20T22:21:20.808Z,97303.63
2022-11-20T22:23:47.606Z,97307.03
2022-11-20T22:26:19.571Z,97310.81
2022-11-20T22:28:50.672Z,97313.00
2022-11-20T22:31:18.838Z,97308.03
2022-11-20T22:33:45.806Z,97309.00
2022-11-20T22:36:15.038Z,97307.72
2022-11-20T22:38:41.953Z,97313.84
2022-11-20T22:41:13.638Z,97310.22
2022-11-20T22:43:41.217Z,97316.19
2022-11-20T22:46:18.786Z,97310.22
2022-11-20T22:48:49.604Z,97305.59
2022-11-20T22:51:17.863Z,97317.69
2022-11-20T22:53:44.405Z,97316.78
2022-11-20T22:56:14.992Z,97313.00
2022-11-20T22:58:43.987Z,97313.91
2022-11-20T23:01:22.075Z,97322.66
2022-11-20T23:03:50.610Z,97321.38
2022-11-20T23:06:18.563Z,97313.84
2022-11-20T23:08:45.636Z,97327.19
2022-11-20T23:11:17.355Z,97317.16
2022-11-20T23:13:44.841Z,97318.16
2022-11-20T23:16:16.394Z,97315.19
2022-11-20T23:18:43.664Z,97324.84
2022-11-20T23:21:15.936Z,97323.72
2022-11-20T23:23:43.417Z,97320.91
2022-11-20T23:26:12.119Z,97321.69
2022-11-20T23:28:39.930Z,97328.72
2022-11-20T23:31:07.318Z,97313.31
2022-11-20T23:33:40.996Z,97306.44
2022-11-20T23:36:08.067Z,97318.75
2022-11-20T23:38:34.833Z,97312.31
2022-11-20T23:41:01.592Z,97322.66
2022-11-20T23:43:28.000Z,97317.09
2022-11-20T23:45:56.156Z,97320.44
2022-11-20T23:48:26.211Z,97322.25
2022-11-20T23:50:53.030Z,97320.16
2022-11-20T23:53:21.957Z,97321.22
2022-11-20T23:55:50.839Z,97323.03
2022-11-20T23:58:17.783Z,97313.97
